createdAt,value
2019-06-27T00:00:38.716Z,17.50
2019-06-27T00:03:09.243Z,17.50
2019-06-27T00:05:40.696Z,17.50
2019-06-27T00:08:11.123Z,17.50
2019-06-27T00:10:41.553Z,17.50
2019-06-27T00:13:11.977Z,17.50
2019-06-27T00:15:43.740Z,17.60
2019-06-27T00:18:14.160Z,17.50
2019-06-27T00:20:44.592Z,17.60
2019-06-27T00:23:15.067Z,17.50
2019-06-27T00:25:45.544Z,17.50
2019-06-27T00:28:16.016Z,17.50
2019-06-27T00:30:46.498Z,17.50
2019-06-27T00:33:16.980Z,17.40
2019-06-27T00:35:47.456Z,17.50
2019-06-27T00:38:36.826Z,17.50
2019-06-27T00:41:07.433Z,17.40
2019-06-27T00:43:37.888Z,17.40
2019-06-27T00:46:09.336Z,17.40
2019-06-27T00:48:39.763Z,17.40
2019-06-27T00:51:10.195Z,17.50
2019-06-27T00:53:40.675Z,17.50
2019-06-27T00:56:11.145Z,17.40
2019-06-27T00:58:41.573Z,17.40
2019-06-27T01:01:12.101Z,17.50
2019-06-27T01:03:42.541Z,17.50
2019-06-27T01:06:13.980Z,17.40
2019-06-27T01:08:44.407Z,17.30
2019-06-27T01:11:14.835Z,17.30
2019-06-27T01:13:45.264Z,17.40
2019-06-27T01:16:16.714Z,17.40
2019-06-27T01:18:47.138Z,17.40
2019-06-27T01:21:17.567Z,17.30
2019-06-27T01:23:47.995Z,17.30
2019-06-27T01:26:19.507Z,17.30
2019-06-27T01:28:50.183Z,17.40
2019-06-27T01:31:20.615Z,17.30
2019-06-27T01:33:51.031Z,17.30
2019-06-27T01:36:22.488Z,17.30
2019-06-27T01:38:53.017Z,17.40
2019-06-27T01:41:23.626Z,17.40
2019-06-27T01:43:55.057Z,17.40
2019-06-27T01:46:25.522Z,17.40
2019-06-27T01:48:55.954Z,17.40
2019-06-27T01:51:26.390Z,17.40
2019-06-27T01:53:56.807Z,17.40
2019-06-27T01:56:28.271Z,17.30
2019-06-27T01:58:58.736Z,17.30
2019-06-27T02:01:29.216Z,17.30
2019-06-27T02:03:59.645Z,17.30
2019-06-27T02:06:30.076Z,17.30
2019-06-27T02:09:00.493Z,17.30
2019-06-27T02:11:30.924Z,17.30
2019-06-27T02:14:01.345Z,17.30
2019-06-27T02:16:31.775Z,17.30
2019-06-27T02:19:02.203Z,17.20
2019-06-27T02:21:32.625Z,17.20
2019-06-27T02:24:03.064Z,17.20
2019-06-27T02:26:33.484Z,17.20
2019-06-27T02:29:03.911Z,17.20
2019-06-27T02:31:34.489Z,17.10
2019-06-27T02:34:06.804Z,17.10
2019-06-27T02:36:37.133Z,17.10
2019-06-27T02:39:07.564Z,17.00
2019-06-27T02:41:38.108Z,17.00
2019-06-27T02:44:08.736Z,16.90
2019-06-27T02:46:39.158Z,16.90
2019-06-27T02:49:09.576Z,17.00
2019-06-27T02:51:40.002Z,17.00
2019-06-27T02:54:11.455Z,17.10
2019-06-27T02:56:41.880Z,17.10
2019-06-27T02:59:12.307Z,17.00
2019-06-27T03:01:42.866Z,17.00
2019-06-27T03:04:15.486Z,17.00
2019-06-27T03:06:45.945Z,16.90
2019-06-27T03:09:16.373Z,17.00
2019-06-27T03:11:46.799Z,17.00
2019-06-27T03:14:18.252Z,17.00
2019-06-27T03:16:48.791Z,16.90
2019-06-27T03:19:19.209Z,16.90
2019-06-27T03:21:49.743Z,16.90
2019-06-27T03:24:21.198Z,16.90
2019-06-27T03:26:51.616Z,16.80
2019-06-27T03:29:22.044Z,16.90
2019-06-27T03:31:52.674Z,16.90
2019-06-27T03:34:24.214Z,16.90
2019-06-27T03:36:54.751Z,16.90
2019-06-27T03:39:25.185Z,16.80
2019-06-27T03:41:55.651Z,16.80
2019-06-27T03:44:26.288Z,16.80
2019-06-27T03:46:56.773Z,16.80
2019-06-27T03:49:46.046Z,16.90
2019-06-27T03:52:16.518Z,16.90
2019-06-27T03:54:46.999Z,16.80
2019-06-27T03:57:17.425Z,16.80
2019-06-27T03:59:47.852Z,16.80
2019-06-27T04:02:18.272Z,16.80
2019-06-27T04:04:49.857Z,16.80
2019-06-27T04:07:20.357Z,16.80
2019-06-27T04:09:50.783Z,16.80
2019-06-27T04:12:21.563Z,16.70
2019-06-27T04:14:52.058Z,16.80
2019-06-27T04:17:22.480Z,16.70
2019-06-27T04:19:52.907Z,16.70
2019-06-27T04:22:23.341Z,16.70
2019-06-27T04:24:54.778Z,16.80
2019-06-27T04:27:25.207Z,16.80
2019-06-27T04:29:55.634Z,16.80
2019-06-27T04:32:26.243Z,16.80
2019-06-27T04:34:56.698Z,16.80
2019-06-27T04:37:27.174Z,16.80
2019-06-27T04:39:57.650Z,16.80
2019-06-27T04:42:28.382Z,16.80
2019-06-27T04:44:59.015Z,16.80
2019-06-27T04:47:29.439Z,16.80
2019-06-27T04:49:59.912Z,16.80
2019-06-27T04:52:30.547Z,16.80
2019-06-27T04:55:03.363Z,16.80
2019-06-27T04:57:33.205Z,16.80
2019-06-27T05:00:03.626Z,16.80
2019-06-27T05:02:34.052Z,16.80
2019-06-27T05:05:05.624Z,16.90
2019-06-27T05:07:54.903Z,16.90
2019-06-27T05:10:25.576Z,16.90
2019-06-27T05:12:56.036Z,16.90
2019-06-27T05:15:27.483Z,17.00
2019-06-27T05:17:57.945Z,17.00
2019-06-27T05:20:28.339Z,17.10
2019-06-27T05:22:58.809Z,17.10
2019-06-27T05:25:29.945Z,17.10
2019-06-27T05:28:00.544Z,17.20
2019-06-27T05:30:30.972Z,17.30
2019-06-27T05:33:01.610Z,17.30
2019-06-27T05:36:19.642Z,17.30
2019-06-27T05:38:50.122Z,17.30
2019-06-27T05:41:20.599Z,17.40
2019-06-27T05:43:51.230Z,17.40
2019-06-27T05:46:22.702Z,17.40
2019-06-27T05:48:53.113Z,17.50
2019-06-27T05:51:23.533Z,17.50
2019-06-27T05:56:24.491Z,17.50
2019-06-27T06:08:53.196Z,17.50
2019-06-27T06:11:24.268Z,17.80
2019-06-27T06:13:54.748Z,17.80
2019-06-27T06:16:25.141Z,18.00
2019-06-27T06:18:55.620Z,18.00
2019-06-27T06:21:25.996Z,18.10
2019-06-27T06:23:56.422Z,18.10
2019-06-27T06:26:26.851Z,18.10
2019-06-27T06:31:27.061Z,18.20
2019-06-27T06:33:57.620Z,18.30
2019-06-27T06:36:28.050Z,18.30
2019-06-27T06:38:58.471Z,18.30
2019-06-27T06:41:29.032Z,18.20
2019-06-27T06:43:59.538Z,18.20
2019-06-27T06:46:29.960Z,18.20
2019-06-27T06:49:00.417Z,18.10
2019-06-27T06:51:30.913Z,18.20
2019-06-27T06:54:01.515Z,18.10
2019-06-27T06:56:31.975Z,18.10
2019-06-27T06:59:02.676Z,18.00
2019-06-27T07:01:33.136Z,18.00
2019-06-27T07:04:03.571Z,18.00
2019-06-27T07:06:33.999Z,17.90
2019-06-27T07:09:05.307Z,17.90
2019-06-27T07:11:35.810Z,17.90
2019-06-27T07:14:06.294Z,17.90
2019-06-27T07:16:36.740Z,18.10
2019-06-27T07:19:25.957Z,18.40
2019-06-27T07:24:44.971Z,18.70
2019-06-27T07:27:15.542Z,19.70
2019-06-27T07:29:46.032Z,20.10
2019-06-27T07:32:16.459Z,20.40
2019-06-27T07:34:47.086Z,20.60
2019-06-27T07:37:17.511Z,20.60
2019-06-27T07:39:47.938Z,20.70
2019-06-27T07:42:18.415Z,20.80
2019-06-27T07:44:48.895Z,20.80
2019-06-27T07:49:48.830Z,21.00
2019-06-27T07:52:19.255Z,21.60
2019-06-27T07:54:49.683Z,22.10
2019-06-27T07:57:20.110Z,22.50
2019-06-27T07:59:50.536Z,22.70
2019-06-27T08:02:21.168Z,23.10
2019-06-27T08:04:51.803Z,23.50
2019-06-27T08:07:23.248Z,23.70
2019-06-27T08:09:53.693Z,23.80
2019-06-27T08:12:24.441Z,24.00
2019-06-27T08:15:14.501Z,24.30
2019-06-27T08:17:45.145Z,24.40
2019-06-27T08:20:15.735Z,24.50
2019-06-27T08:25:16.105Z,24.90
2019-06-27T08:27:46.535Z,25.60
2019-06-27T08:30:18.292Z,25.90
2019-06-27T08:32:48.717Z,26.60
2019-06-27T08:35:19.420Z,27.10
2019-06-27T08:37:49.879Z,27.70
2019-06-27T08:40:20.410Z,28.50
2019-06-27T08:42:50.891Z,28.60
2019-06-27T08:45:21.366Z,29.50
2019-06-27T08:47:51.832Z,30.30
2019-06-27T08:50:22.524Z,30.90
2019-06-27T08:52:52.958Z,31.40
2019-06-27T08:55:23.507Z,31.80
2019-06-27T08:57:54.015Z,32.10
2019-06-27T09:00:24.460Z,32.70
2019-06-27T09:02:54.968Z,32.40
2019-06-27T09:05:26.418Z,32.80
2019-06-27T09:07:56.845Z,32.70
2019-06-27T09:10:27.271Z,32.60
2019-06-27T09:12:57.698Z,33.70
2019-06-27T09:15:28.174Z,33.70
2019-06-27T09:17:58.699Z,33.90
2019-06-27T09:20:29.237Z,33.40
2019-06-27T09:22:59.715Z,32.70
2019-06-27T09:25:30.146Z,33.30
2019-06-27T09:28:00.567Z,34.40
2019-06-27T09:30:30.994Z,34.50
2019-06-27T09:33:01.424Z,35.30
2019-06-27T09:35:32.156Z,35.10
2019-06-27T09:38:02.621Z,34.80
2019-06-27T09:40:33.121Z,35.50
2019-06-27T09:43:03.543Z,35.20
2019-06-27T09:45:35.048Z,35.90
2019-06-27T09:48:05.519Z,36.50
2019-06-27T09:50:35.947Z,36.40
2019-06-27T09:53:06.375Z,35.90
2019-06-27T09:55:36.901Z,36.60
2019-06-27T09:58:07.330Z,36.60
2019-06-27T10:00:37.756Z,37.00
2019-06-27T10:03:08.175Z,37.10
2019-06-27T10:05:39.635Z,38.10
2019-06-27T10:08:10.061Z,38.40
2019-06-27T10:10:40.479Z,38.90
2019-06-27T10:13:10.923Z,37.80
2019-06-27T10:15:41.445Z,37.50
2019-06-27T10:18:11.915Z,37.80
2019-06-27T10:20:42.471Z,38.70
2019-06-27T10:23:12.930Z,39.20
2019-06-27T10:25:44.381Z,39.40
2019-06-27T10:28:14.824Z,39.80
2019-06-27T10:30:49.069Z,39.80
2019-06-27T10:33:17.608Z,39.80
2019-06-27T10:35:48.241Z,39.00
2019-06-27T10:38:18.671Z,38.50
2019-06-27T10:40:49.267Z,38.70
2019-06-27T10:43:19.907Z,38.80
2019-06-27T10:45:50.362Z,39.10
2019-06-27T10:48:20.972Z,39.80
2019-06-27T10:50:54.564Z,40.60
2019-06-27T10:53:23.583Z,40.90
2019-06-27T10:55:54.015Z,40.30
2019-06-27T10:58:24.541Z,40.40
2019-06-27T11:00:54.967Z,40.50
2019-06-27T11:03:25.394Z,40.90
2019-06-27T11:05:55.820Z,41.70
2019-06-27T11:08:26.247Z,41.30
2019-06-27T11:10:57.801Z,41.80
2019-06-27T11:13:28.229Z,41.50
2019-06-27T11:15:58.656Z,42.10
2019-06-27T11:18:29.184Z,41.80
2019-06-27T11:20:59.764Z,41.60
2019-06-27T11:23:30.244Z,42.50
2019-06-27T11:26:01.694Z,41.60
2019-06-27T11:28:32.120Z,41.50
2019-06-27T11:31:02.561Z,42.30
2019-06-27T11:33:33.314Z,42.30
2019-06-27T11:36:04.134Z,42.40
2019-06-27T11:38:34.751Z,42.30
2019-06-27T11:41:05.177Z,41.60
2019-06-27T11:43:35.604Z,41.50
2019-06-27T11:46:08.694Z,42.00
2019-06-27T11:48:37.863Z,42.50
2019-06-27T11:51:08.364Z,43.20
2019-06-27T11:53:38.664Z,42.60
2019-06-27T11:56:09.235Z,42.50
2019-06-27T11:58:39.765Z,42.00
2019-06-27T12:01:10.334Z,41.60
2019-06-27T12:03:49.273Z,41.20
2019-06-27T12:06:12.920Z,41.50
2019-06-27T12:08:43.355Z,42.40
2019-06-27T12:11:13.771Z,42.50
2019-06-27T12:13:44.210Z,43.10
2019-06-27T12:16:15.667Z,42.50
2019-06-27T12:18:46.131Z,42.70
2019-06-27T12:21:16.684Z,42.10
2019-06-27T12:23:47.145Z,41.90
2019-06-27T12:26:18.597Z,42.10
2019-06-27T12:28:49.023Z,42.80
2019-06-27T12:31:21.186Z,43.20
2019-06-27T12:34:05.662Z,43.80
2019-06-27T12:36:23.785Z,43.90
2019-06-27T12:38:54.213Z,43.90
2019-06-27T12:41:24.639Z,43.60
2019-06-27T12:43:55.066Z,44.30
2019-06-27T12:46:26.519Z,44.50
2019-06-27T12:48:56.944Z,44.00
2019-06-27T12:51:27.371Z,44.60
2019-06-27T12:53:58.026Z,44.50
2019-06-27T12:56:28.532Z,44.70
2019-06-27T12:58:58.959Z,44.10
2019-06-27T13:01:29.388Z,43.50
2019-06-27T13:03:59.819Z,42.90
2019-06-27T13:06:30.242Z,42.20
2019-06-27T13:09:00.666Z,41.70
2019-06-27T13:11:31.096Z,41.40
2019-06-27T13:14:01.522Z,41.80
2019-06-27T13:16:32.154Z,41.00
2019-06-27T13:19:02.626Z,40.50
2019-06-27T13:21:33.154Z,40.30
2019-06-27T13:24:03.787Z,40.30
2019-06-27T13:26:34.278Z,40.40
2019-06-27T13:29:04.697Z,39.50
2019-06-27T13:31:35.130Z,38.90
2019-06-27T13:34:05.553Z,40.00
2019-06-27T13:36:36.287Z,40.60
2019-06-27T13:39:06.916Z,40.70
2019-06-27T13:41:37.343Z,41.20
2019-06-27T13:44:07.874Z,40.90
2019-06-27T13:46:38.299Z,41.50
2019-06-27T13:49:08.727Z,41.80
2019-06-27T13:51:39.155Z,42.00
2019-06-27T13:54:09.634Z,41.80
2019-06-27T13:56:40.050Z,42.50
2019-06-27T13:59:10.537Z,42.90
2019-06-27T14:01:40.971Z,42.60
2019-06-27T14:04:11.494Z,42.60
2019-06-27T14:06:41.968Z,42.40
2019-06-27T14:09:22.434Z,41.80
2019-06-27T14:11:45.759Z,41.80
2019-06-27T14:14:25.395Z,42.00
2019-06-27T14:16:55.815Z,42.60
2019-06-27T14:19:26.286Z,42.30
2019-06-27T14:21:58.880Z,42.30
2019-06-27T14:24:28.929Z,42.80
2019-06-27T14:26:59.411Z,42.00
2019-06-27T14:29:29.895Z,42.00
2019-06-27T14:32:00.455Z,42.70
2019-06-27T14:34:30.961Z,42.30
2019-06-27T14:37:01.690Z,42.80
2019-06-27T14:39:32.102Z,42.90
2019-06-27T14:42:02.582Z,41.50
2019-06-27T14:44:33.073Z,41.70
2019-06-27T14:47:03.584Z,41.90
2019-06-27T14:49:34.027Z,41.60
2019-06-27T14:52:04.442Z,41.10
2019-06-27T14:54:35.075Z,40.50
2019-06-27T14:57:05.514Z,40.80
2019-06-27T14:59:35.991Z,40.40
2019-06-27T15:02:07.547Z,40.20
2019-06-27T15:04:38.021Z,39.00
2019-06-27T15:07:08.452Z,38.30
2019-06-27T15:09:38.881Z,38.00
2019-06-27T15:12:09.302Z,37.90
2019-06-27T15:14:39.732Z,37.50
2019-06-27T15:17:10.161Z,36.80
2019-06-27T15:19:42.120Z,36.20
2019-06-27T15:22:12.696Z,35.60
2019-06-27T15:24:43.171Z,35.30
2019-06-27T15:27:13.813Z,34.50
2019-06-27T15:29:44.387Z,34.10
2019-06-27T15:32:14.869Z,33.30
2019-06-27T15:34:46.320Z,32.80
2019-06-27T15:37:17.667Z,32.00
2019-06-27T15:39:48.086Z,31.70
2019-06-27T15:42:18.529Z,31.60
2019-06-27T15:44:49.040Z,31.60
2019-06-27T15:47:19.484Z,31.00
2019-06-27T15:49:49.923Z,30.70
2019-06-27T15:52:20.598Z,30.90
2019-06-27T15:54:51.065Z,30.90
2019-06-27T15:57:21.482Z,30.90
2019-06-27T15:59:51.924Z,31.00
2019-06-27T16:02:22.783Z,31.10
2019-06-27T16:05:05.779Z,30.80
2019-06-27T16:07:36.205Z,30.80
2019-06-27T16:10:07.155Z,30.80
2019-06-27T16:12:37.569Z,30.60
2019-06-27T16:15:08.279Z,30.40
2019-06-27T16:17:38.907Z,30.00
2019-06-27T16:20:10.267Z,29.50
2019-06-27T16:22:40.712Z,29.50
2019-06-27T16:25:11.548Z,29.20
2019-06-27T16:27:41.976Z,28.80
2019-06-27T16:30:12.403Z,28.60
2019-06-27T16:32:45.742Z,28.30
2019-06-27T16:35:16.230Z,28.30
2019-06-27T16:37:46.960Z,28.40
2019-06-27T16:40:18.198Z,28.20
2019-06-27T16:42:48.634Z,28.00
2019-06-27T16:45:20.191Z,27.80
2019-06-27T16:47:50.613Z,27.70
2019-06-27T16:50:39.783Z,27.80
2019-06-27T16:53:10.411Z,27.80
2019-06-27T16:55:41.862Z,27.70
2019-06-27T16:58:12.289Z,27.60
2019-06-27T17:00:43.388Z,27.50
2019-06-27T17:03:13.990Z,27.40
2019-06-27T17:05:44.497Z,27.50
2019-06-27T17:08:14.917Z,27.50
2019-06-27T17:10:45.348Z,27.50
2019-06-27T17:13:15.785Z,27.40
2019-06-27T17:15:46.198Z,27.40
2019-06-27T17:18:16.630Z,27.30
2019-06-27T17:20:47.257Z,27.30
2019-06-27T17:23:17.688Z,27.00
2019-06-27T17:25:48.104Z,27.00
2019-06-27T17:28:18.538Z,26.80
2019-06-27T17:30:48.965Z,26.60
2019-06-27T17:33:19.391Z,26.40
2019-06-27T17:35:49.863Z,26.40
2019-06-27T17:38:20.449Z,26.40
2019-06-27T17:40:50.882Z,26.30
2019-06-27T17:43:21.307Z,26.20
2019-06-27T17:45:52.757Z,26.10
2019-06-27T17:48:23.182Z,26.00
2019-06-27T17:50:53.609Z,26.00
2019-06-27T17:53:24.127Z,26.00
2019-06-27T17:55:55.658Z,25.90
2019-06-27T17:58:26.474Z,25.80
2019-06-27T18:00:56.956Z,25.60
2019-06-27T18:03:27.404Z,25.60
2019-06-27T18:05:59.110Z,25.50
2019-06-27T18:08:29.568Z,25.30
2019-06-27T18:10:59.994Z,25.30
2019-06-27T18:13:30.424Z,25.00
2019-06-27T18:16:01.873Z,24.90
2019-06-27T18:18:32.299Z,24.80
2019-06-27T18:21:04.159Z,24.70
2019-06-27T18:23:34.587Z,24.60
2019-06-27T18:26:06.241Z,24.60
2019-06-27T18:28:36.675Z,24.50
2019-06-27T18:31:07.095Z,24.40
2019-06-27T18:33:37.528Z,24.30
2019-06-27T18:36:08.979Z,24.10
2019-06-27T18:38:39.455Z,24.00
2019-06-27T18:41:12.701Z,23.90
2019-06-27T18:43:41.995Z,23.80
2019-06-27T18:46:13.447Z,23.70
2019-06-27T18:48:43.873Z,23.60
2019-06-27T18:51:14.299Z,23.50
2019-06-27T18:53:44.829Z,23.50
2019-06-27T18:56:15.370Z,23.40
2019-06-27T18:58:45.795Z,23.10
2019-06-27T19:01:17.360Z,22.90
2019-06-27T19:03:48.075Z,22.60
2019-06-27T19:06:18.713Z,22.50
2019-06-27T19:08:49.283Z,22.30
2019-06-27T19:11:19.771Z,22.30
2019-06-27T19:13:50.218Z,22.30
2019-06-27T19:16:20.749Z,22.20
2019-06-27T19:18:55.303Z,22.20
2019-06-27T19:21:43.145Z,22.10
2019-06-27T19:24:45.455Z,22.10
2019-06-27T19:27:16.599Z,22.10
2019-06-27T19:29:47.640Z,22.00
2019-06-27T19:32:19.498Z,22.00
2019-06-27T19:34:50.260Z,21.90
2019-06-27T19:37:21.380Z,21.80
2019-06-27T19:39:52.659Z,21.60
2019-06-27T19:42:24.837Z,21.50
2019-06-27T19:44:57.009Z,21.50
2019-06-27T19:47:28.172Z,21.40
2019-06-27T19:49:58.673Z,21.20
2019-06-27T19:52:31.211Z,21.20
2019-06-27T19:55:01.965Z,21.20
2019-06-27T19:57:34.818Z,21.10
2019-06-27T20:00:06.100Z,21.00
2019-06-27T20:02:36.774Z,21.00
2019-06-27T20:05:07.790Z,20.90
2019-06-27T20:07:38.502Z,20.80
2019-06-27T20:10:11.853Z,20.80
2019-06-27T20:12:43.096Z,20.70
2019-06-27T20:15:13.848Z,20.60
2019-06-27T20:17:44.625Z,20.60
2019-06-27T20:20:15.491Z,20.50
2019-06-27T20:22:46.370Z,20.40
2019-06-27T20:25:17.951Z,20.30
2019-06-27T20:27:48.569Z,20.20
2019-06-27T20:30:19.197Z,20.10
2019-06-27T20:32:50.590Z,20.00
2019-06-27T20:35:21.075Z,20.00
2019-06-27T20:37:51.543Z,19.90
2019-06-27T20:40:22.538Z,19.90
2019-06-27T20:42:53.130Z,19.80
2019-06-27T20:45:23.692Z,19.80
2019-06-27T20:47:54.247Z,19.70
2019-06-27T20:50:24.888Z,19.70
2019-06-27T20:52:55.707Z,19.60
2019-06-27T20:55:26.378Z,19.60
2019-06-27T20:57:56.868Z,19.60
2019-06-27T21:00:27.407Z,19.50
2019-06-27T21:02:57.919Z,19.50
2019-06-27T21:05:28.454Z,19.50
2019-06-27T21:07:59.241Z,19.40
2019-06-27T21:10:29.726Z,19.40
2019-06-27T21:13:00.349Z,19.30
2019-06-27T21:15:31.307Z,19.30
2019-06-27T21:18:01.951Z,19.30
2019-06-27T21:20:32.501Z,19.30
2019-06-27T21:23:03.011Z,19.30
2019-06-27T21:25:33.716Z,19.30
2019-06-27T21:28:23.292Z,19.20
2019-06-27T21:30:54.055Z,19.10
2019-06-27T21:33:24.639Z,19.20
2019-06-27T21:35:55.373Z,19.10
2019-06-27T21:38:25.926Z,19.00
2019-06-27T21:40:59.723Z,19.00
2019-06-27T21:43:30.282Z,19.00
2019-06-27T21:46:00.768Z,18.90
2019-06-27T21:48:31.192Z,18.90
2019-06-27T21:51:01.623Z,18.80
2019-06-27T21:53:32.048Z,18.80
2019-06-27T21:56:03.496Z,18.80
2019-06-27T21:58:33.925Z,18.80
2019-06-27T22:01:04.454Z,18.80
2019-06-27T22:03:34.982Z,18.70
2019-06-27T22:06:05.512Z,18.70
2019-06-27T22:08:35.939Z,18.70
2019-06-27T22:11:06.364Z,18.70
2019-06-27T22:13:36.794Z,18.70
2019-06-27T22:16:08.287Z,18.70
2019-06-27T22:18:38.775Z,18.60
2019-06-27T22:21:09.203Z,18.60
2019-06-27T22:23:39.625Z,18.50
2019-06-27T22:26:10.064Z,18.50
2019-06-27T22:28:40.480Z,18.50
2019-06-27T22:31:10.955Z,18.50
2019-06-27T22:33:41.441Z,18.50
2019-06-27T22:36:11.864Z,18.50
2019-06-27T22:38:59.802Z,18.40
2019-06-27T22:41:48.047Z,18.40
2019-06-27T22:44:36.086Z,18.40
2019-06-27T22:47:24.251Z,18.30
2019-06-27T22:49:53.733Z,18.40
2019-06-27T22:52:43.106Z,18.40
2019-06-27T22:55:17.217Z,18.30
2019-06-27T22:57:47.644Z,18.40
2019-06-27T23:00:18.481Z,18.30
2019-06-27T23:02:48.908Z,18.30
2019-06-27T23:05:19.643Z,18.30
2019-06-27T23:07:50.379Z,18.30
2019-06-27T23:10:20.802Z,18.30
2019-06-27T23:12:51.230Z,18.20
2019-06-27T23:15:22.016Z,18.20
2019-06-27T23:17:52.699Z,18.20
2019-06-27T23:20:23.227Z,18.20
2019-06-27T23:22:53.655Z,18.10
2019-06-27T23:25:25.118Z,18.10
2019-06-27T23:27:55.534Z,18.10
2019-06-27T23:30:27.234Z,18.00
2019-06-27T23:32:57.719Z,18.00
2019-06-27T23:35:29.578Z,18.00
2019-06-27T23:38:00.004Z,18.00
2019-06-27T23:40:30.431Z,18.00
2019-06-27T23:43:00.864Z,18.00
2019-06-27T23:45:31.578Z,18.00
2019-06-27T23:48:02.138Z,18.00
2019-06-27T23:50:32.548Z,18.00
2019-06-27T23:53:03.181Z,18.00
2019-06-27T23:55:33.812Z,17.90
2019-06-27T23:58:04.447Z,17.90
